createdAt,value
2023-03-11T00:00:50.343Z,2.10
2023-03-11T00:03:20.457Z,3.10
2023-03-11T00:05:48.776Z,3.63
2023-03-11T00:08:19.617Z,3.20
2023-03-11T00:10:49.523Z,3.63
2023-03-11T00:13:19.803Z,3.57
2023-03-11T00:15:49.986Z,4.13
2023-03-11T00:18:19.256Z,3.60
2023-03-11T00:20:48.572Z,4.57
2023-03-11T00:23:17.143Z,3.90
2023-03-11T00:25:46.605Z,4.70
2023-03-11T00:28:16.540Z,4.50
2023-03-11T00:30:47.797Z,4.30
2023-03-11T00:33:17.715Z,4.27
2023-03-11T00:35:46.430Z,4.70
2023-03-11T00:38:17.239Z,4.33
2023-03-11T00:40:48.033Z,4.80
2023-03-11T00:43:16.974Z,4.37
2023-03-11T00:45:46.743Z,4.70
2023-03-11T00:48:15.898Z,4.10
2023-03-11T00:50:44.336Z,4.70
2023-03-11T00:53:13.358Z,3.73
2023-03-11T00:55:41.729Z,3.37
2023-03-11T00:58:13.861Z,3.50
2023-03-11T01:00:52.325Z,3.33
2023-03-11T01:03:20.737Z,3.50
2023-03-11T01:05:49.146Z,3.50
2023-03-11T01:08:17.375Z,3.63
2023-03-11T01:10:45.620Z,3.60
2023-03-11T01:13:13.985Z,3.37
2023-03-11T01:15:42.353Z,3.27
2023-03-11T01:18:12.081Z,3.47
2023-03-11T01:20:40.497Z,3.33
2023-03-11T01:23:09.649Z,2.80
2023-03-11T01:25:38.570Z,2.70
2023-03-11T01:28:08.319Z,3.17
2023-03-11T01:30:38.238Z,2.80
2023-03-11T01:33:07.481Z,3.23
2023-03-11T01:35:37.157Z,2.80
2023-03-11T01:38:05.348Z,2.53
2023-03-11T01:40:36.332Z,2.80
2023-03-11T01:43:29.145Z,3.40
2023-03-11T01:46:14.771Z,3.13
2023-03-11T01:48:48.299Z,3.20
2023-03-11T01:51:22.156Z,3.50
2023-03-11T01:53:50.737Z,3.37
2023-03-11T01:56:19.290Z,3.67
2023-03-11T01:58:52.276Z,4.47
2023-03-11T02:01:22.093Z,4.10
2023-03-11T02:03:50.944Z,4.37
2023-03-11T02:06:23.214Z,3.87
2023-03-11T02:08:52.379Z,3.90
2023-03-11T02:11:24.920Z,4.13
2023-03-11T02:13:54.719Z,4.23
2023-03-11T02:16:23.178Z,4.57
2023-03-11T02:18:52.534Z,3.90
2023-03-11T02:21:26.433Z,4.43
2023-03-11T02:24:03.772Z,3.77
2023-03-11T02:26:38.507Z,4.03
2023-03-11T02:29:10.586Z,3.77
2023-03-11T02:31:42.873Z,4.20
2023-03-11T02:34:18.858Z,4.57
2023-03-11T02:36:47.357Z,3.57
2023-03-11T02:39:16.711Z,3.33
2023-03-11T02:41:47.137Z,3.97
2023-03-11T02:44:17.515Z,3.57
2023-03-11T02:46:46.507Z,3.73
2023-03-11T02:49:16.525Z,4.00
2023-03-11T02:51:44.833Z,3.70
2023-03-11T02:54:13.260Z,3.97
2023-03-11T02:56:41.946Z,3.90
2023-03-11T02:59:10.278Z,3.93
2023-03-11T03:01:40.392Z,4.43
2023-03-11T03:04:08.878Z,3.43
2023-03-11T03:06:37.266Z,4.40
2023-03-11T03:09:06.040Z,4.40
2023-03-11T03:11:34.464Z,4.10
2023-03-11T03:14:03.032Z,4.70
2023-03-11T03:16:31.464Z,5.30
2023-03-11T03:19:01.258Z,4.70
2023-03-11T03:21:29.568Z,6.00
2023-03-11T03:23:58.168Z,5.70
2023-03-11T03:26:26.382Z,5.33
2023-03-11T03:28:54.604Z,5.37
2023-03-11T03:31:22.938Z,5.13
2023-03-11T03:33:51.712Z,5.03
2023-03-11T03:36:21.444Z,5.10
2023-03-11T03:38:56.487Z,4.60
2023-03-11T03:41:27.825Z,4.43
2023-03-11T03:43:57.022Z,4.80
2023-03-11T03:46:25.541Z,4.30
2023-03-11T03:48:57.464Z,4.73
2023-03-11T03:51:27.650Z,5.33
2023-03-11T03:54:25.243Z,5.10
2023-03-11T03:56:53.732Z,4.23
2023-03-11T03:59:22.709Z,4.47
2023-03-11T04:01:55.889Z,3.93
2023-03-11T04:04:25.745Z,4.43
2023-03-11T04:06:55.720Z,3.87
2023-03-11T04:09:24.052Z,5.10
2023-03-11T04:11:52.599Z,4.03
2023-03-11T04:14:21.109Z,4.63
2023-03-11T04:16:55.477Z,5.13
2023-03-11T04:19:24.136Z,3.80
2023-03-11T04:21:52.655Z,3.60
2023-03-11T04:24:24.260Z,3.67
2023-03-11T04:26:52.912Z,4.03
2023-03-11T04:29:22.434Z,4.37
2023-03-11T04:31:53.738Z,4.23
2023-03-11T04:34:22.207Z,4.43
2023-03-11T04:36:53.682Z,4.30
2023-03-11T04:39:25.737Z,4.07
2023-03-11T04:41:54.125Z,4.53
2023-03-11T04:44:25.528Z,3.50
2023-03-11T04:46:54.174Z,4.10
2023-03-11T04:49:22.620Z,3.60
2023-03-11T04:51:52.442Z,3.87
2023-03-11T04:54:25.001Z,3.83
2023-03-11T04:56:53.573Z,3.67
2023-03-11T04:59:22.744Z,4.43
2023-03-11T05:01:52.949Z,3.63
2023-03-11T05:04:21.258Z,3.70
2023-03-11T05:06:51.194Z,3.73
2023-03-11T05:09:20.187Z,4.23
2023-03-11T05:11:49.870Z,4.27
2023-03-11T05:14:20.497Z,4.80
2023-03-11T05:16:48.940Z,4.10
2023-03-11T05:19:35.019Z,3.93
2023-03-11T05:22:10.603Z,4.03
2023-03-11T05:24:39.698Z,4.27
2023-03-11T05:27:09.651Z,4.77
2023-03-11T05:29:39.476Z,4.33
2023-03-11T05:32:10.836Z,4.00
2023-03-11T05:34:39.450Z,4.47
2023-03-11T05:37:09.157Z,4.13
2023-03-11T05:39:38.302Z,5.23
2023-03-11T05:42:07.341Z,4.50
2023-03-11T05:44:38.056Z,4.50
2023-03-11T05:47:07.056Z,4.90
2023-03-11T05:49:36.224Z,4.17
2023-03-11T05:52:05.146Z,4.70
2023-03-11T05:54:34.345Z,4.70
2023-03-11T05:57:02.903Z,4.40
2023-03-11T05:59:35.345Z,5.03
2023-03-11T06:02:07.390Z,5.00
2023-03-11T06:04:35.827Z,4.67
2023-03-11T06:07:04.884Z,5.00
2023-03-11T06:09:37.104Z,4.70
2023-03-11T06:12:07.595Z,5.23
2023-03-11T06:14:49.254Z,4.87
2023-03-11T06:17:18.927Z,5.87
2023-03-11T06:19:47.160Z,6.50
2023-03-11T06:22:15.512Z,5.77
2023-03-11T06:24:43.836Z,5.50
2023-03-11T06:27:12.710Z,5.27
2023-03-11T06:29:42.776Z,5.53
2023-03-11T06:32:11.595Z,5.50
2023-03-11T06:34:41.233Z,6.43
2023-03-11T06:37:09.675Z,5.87
2023-03-11T06:39:38.620Z,6.30
2023-03-11T06:42:10.937Z,5.87
2023-03-11T06:44:39.921Z,6.40
2023-03-11T06:47:08.272Z,6.60
2023-03-11T06:49:44.720Z,6.57
2023-03-11T06:52:13.067Z,6.30
2023-03-11T06:54:41.446Z,5.40
2023-03-11T06:57:12.997Z,6.30
2023-03-11T06:59:41.799Z,7.27
2023-03-11T07:02:15.174Z,7.33
2023-03-11T07:04:45.956Z,7.63
2023-03-11T07:07:14.336Z,6.77
2023-03-11T07:09:42.715Z,7.07
2023-03-11T07:12:14.963Z,6.83
2023-03-11T07:14:43.466Z,7.10
2023-03-11T07:17:11.915Z,6.93
2023-03-11T07:19:48.626Z,7.10
2023-03-11T07:22:16.869Z,7.60
2023-03-11T07:24:46.764Z,7.27
2023-03-11T07:27:15.242Z,9.90
2023-03-11T07:29:43.464Z,11.10
2023-03-11T07:32:11.940Z,9.53
2023-03-11T07:34:40.378Z,9.73
2023-03-11T07:37:10.167Z,9.10
2023-03-11T07:39:40.272Z,9.73
2023-03-11T07:42:09.076Z,10.07
2023-03-11T07:44:39.194Z,9.17
2023-03-11T07:47:07.847Z,9.70
2023-03-11T07:49:39.068Z,9.47
2023-03-11T07:52:09.324Z,9.50
2023-03-11T07:54:38.266Z,10.33
2023-03-11T07:57:07.450Z,8.13
2023-03-11T07:59:35.746Z,7.80
2023-03-11T08:02:04.831Z,7.83
2023-03-11T08:04:33.108Z,7.67
2023-03-11T08:07:01.372Z,7.37
2023-03-11T08:09:31.064Z,7.60
2023-03-11T08:11:59.308Z,7.30
2023-03-11T08:14:27.614Z,6.83
2023-03-11T08:16:55.841Z,7.27
2023-03-11T08:19:24.066Z,5.50
2023-03-11T08:21:52.329Z,5.23
2023-03-11T08:24:20.546Z,5.50
2023-03-11T08:26:50.189Z,5.20
2023-03-11T08:29:18.433Z,4.90
2023-03-11T08:31:46.680Z,5.03
2023-03-11T08:34:21.512Z,4.57
2023-03-11T08:36:49.968Z,4.73
2023-03-11T08:39:18.167Z,4.50
2023-03-11T08:41:46.364Z,4.77
2023-03-11T08:44:15.972Z,3.53
2023-03-11T08:46:46.705Z,3.70
2023-03-11T08:49:14.995Z,3.23
2023-03-11T08:51:43.518Z,2.83
2023-03-11T08:54:11.738Z,2.10
2023-03-11T08:56:40.033Z,1.97
2023-03-11T08:59:08.583Z,2.93
2023-03-11T09:01:38.446Z,3.00
2023-03-11T09:04:06.971Z,1.93
2023-03-11T09:06:35.492Z,2.00
2023-03-11T09:09:03.850Z,2.10
2023-03-11T09:11:32.081Z,1.57
2023-03-11T09:14:00.303Z,2.10
2023-03-11T09:16:28.647Z,1.53
2023-03-11T09:19:00.392Z,1.60
2023-03-11T09:21:28.706Z,3.47
2023-03-11T09:23:56.955Z,1.80
2023-03-11T09:26:25.288Z,2.27
2023-03-11T09:28:53.546Z,1.90
2023-03-11T09:31:21.925Z,1.77
2023-03-11T09:33:52.781Z,3.93
2023-03-11T09:36:22.933Z,1.90
2023-03-11T09:38:51.199Z,2.07
2023-03-11T09:41:28.412Z,1.63
2023-03-11T09:44:07.229Z,1.97
2023-03-11T09:46:58.805Z,2.03
2023-03-11T09:49:40.979Z,1.87
2023-03-11T09:52:13.264Z,2.00
2023-03-11T09:54:43.727Z,1.80
2023-03-11T09:57:16.304Z,1.90
2023-03-11T09:59:46.466Z,1.67
2023-03-11T10:02:18.649Z,2.07
2023-03-11T10:04:52.840Z,1.80
2023-03-11T10:07:27.929Z,1.93
2023-03-11T10:09:58.440Z,2.00
2023-03-11T10:12:41.794Z,1.47
2023-03-11T10:15:18.931Z,1.73
2023-03-11T10:18:19.480Z,1.77
2023-03-11T10:20:55.671Z,1.30
2023-03-11T10:23:28.119Z,1.97
2023-03-11T10:26:04.148Z,1.30
2023-03-11T10:28:37.736Z,1.87
2023-03-11T10:31:21.697Z,1.43
2023-03-11T10:33:53.745Z,1.40
2023-03-11T10:36:26.545Z,1.50
2023-03-11T10:38:57.531Z,1.80
2023-03-11T10:41:44.986Z,1.63
2023-03-11T10:44:17.329Z,1.53
2023-03-11T10:46:46.146Z,1.67
2023-03-11T10:49:16.300Z,1.50
2023-03-11T10:51:48.471Z,1.73
2023-03-11T10:54:27.369Z,1.73
2023-03-11T10:56:57.807Z,1.70
2023-03-11T10:59:30.316Z,1.77
2023-03-11T11:02:00.781Z,1.80
2023-03-11T11:04:37.979Z,1.93
2023-03-11T11:07:29.238Z,2.07
2023-03-11T11:10:17.623Z,1.70
2023-03-11T11:12:54.981Z,1.60
2023-03-11T11:15:25.613Z,1.60
2023-03-11T11:17:56.604Z,1.90
2023-03-11T11:20:26.513Z,1.63
2023-03-11T11:22:57.250Z,1.63
2023-03-11T11:25:29.707Z,1.70
2023-03-11T11:28:00.133Z,1.90
2023-03-11T11:30:29.572Z,1.97
2023-03-11T11:32:58.190Z,1.90
2023-03-11T11:35:26.703Z,2.13
2023-03-11T11:38:00.989Z,2.10
2023-03-11T11:40:33.049Z,2.10
2023-03-11T11:43:05.881Z,2.07
2023-03-11T11:45:38.947Z,1.83
2023-03-11T11:48:17.345Z,1.90
2023-03-11T11:50:49.841Z,2.20
2023-03-11T11:53:28.732Z,2.63
2023-03-11T11:55:58.422Z,1.90
2023-03-11T11:58:26.786Z,2.27
2023-03-11T12:01:05.766Z,1.90
2023-03-11T12:04:03.179Z,2.10
2023-03-11T12:06:38.266Z,1.83
2023-03-11T12:09:16.033Z,2.13
2023-03-11T12:11:52.647Z,1.97
2023-03-11T12:14:25.105Z,2.20
2023-03-11T12:16:58.405Z,1.97
2023-03-11T12:19:38.183Z,1.87
2023-03-11T12:22:28.473Z,1.80
2023-03-11T12:25:32.899Z,2.20
2023-03-11T12:28:09.395Z,2.20
2023-03-11T12:30:44.873Z,1.70
2023-03-11T12:33:18.445Z,1.80
2023-03-11T12:35:53.584Z,2.53
2023-03-11T12:38:29.771Z,2.00
2023-03-11T12:41:01.419Z,1.83
2023-03-11T12:44:01.687Z,2.20
2023-03-11T12:47:11.757Z,1.80
2023-03-11T12:49:41.845Z,2.40
2023-03-11T12:52:28.695Z,2.33
2023-03-11T12:55:26.291Z,2.10
2023-03-11T12:58:23.935Z,1.93
2023-03-11T13:01:13.746Z,1.53
2023-03-11T13:04:07.964Z,1.70
2023-03-11T13:06:54.488Z,1.63
2023-03-11T13:09:22.874Z,1.50
2023-03-11T13:11:51.427Z,1.60
2023-03-11T13:14:30.913Z,2.03
2023-03-11T13:17:27.491Z,1.60
2023-03-11T13:19:57.519Z,1.73
2023-03-11T13:23:16.138Z,1.70
2023-03-11T13:25:58.801Z,1.63
2023-03-11T13:28:45.280Z,1.33
2023-03-11T13:31:30.279Z,1.37
2023-03-11T13:34:05.940Z,1.60
2023-03-11T13:36:46.132Z,1.20
2023-03-11T13:39:39.486Z,1.33
2023-03-11T13:42:18.347Z,1.60
2023-03-11T13:44:48.466Z,1.60
2023-03-11T13:47:18.617Z,1.60
2023-03-11T13:49:54.642Z,1.70
2023-03-11T13:52:28.421Z,1.90
2023-03-11T13:55:02.308Z,1.90
2023-03-11T13:57:33.908Z,1.90
2023-03-11T14:00:16.776Z,1.43
2023-03-11T14:02:51.237Z,1.57
2023-03-11T14:05:24.453Z,1.67
2023-03-11T14:07:52.877Z,1.43
2023-03-11T14:10:29.972Z,1.60
2023-03-11T14:13:16.732Z,1.60
2023-03-11T14:15:52.526Z,1.33
2023-03-11T14:18:33.126Z,1.40
2023-03-11T14:21:03.790Z,1.40
2023-03-11T14:23:40.706Z,1.30
2023-03-11T14:26:13.474Z,1.50
2023-03-11T14:28:45.205Z,1.27
2023-03-11T14:31:33.937Z,1.57
2023-03-11T14:34:06.817Z,1.53
2023-03-11T14:36:44.302Z,1.50
2023-03-11T14:39:31.127Z,1.57
2023-03-11T14:42:07.182Z,1.50
2023-03-11T14:44:39.984Z,1.57
2023-03-11T14:47:14.687Z,1.37
2023-03-11T14:49:43.890Z,1.60
2023-03-11T14:52:20.157Z,1.50
2023-03-11T14:54:50.040Z,1.70
2023-03-11T14:57:25.248Z,1.33
2023-03-11T14:59:55.602Z,2.00
2023-03-11T15:02:38.654Z,2.10
2023-03-11T15:05:12.595Z,1.20
2023-03-11T15:07:43.287Z,1.83
2023-03-11T15:10:13.039Z,1.97
2023-03-11T15:12:43.583Z,1.60
2023-03-11T15:15:24.128Z,1.77
2023-03-11T15:17:56.804Z,1.53
2023-03-11T15:20:27.904Z,1.20
2023-03-11T15:23:01.257Z,1.07
2023-03-11T15:25:33.270Z,1.30
2023-03-11T15:28:14.751Z,1.10
2023-03-11T15:30:43.277Z,1.40
2023-03-11T15:33:22.998Z,1.33
2023-03-11T15:35:51.871Z,1.30
2023-03-11T15:38:27.804Z,1.17
2023-03-11T15:40:58.602Z,1.20
2023-03-11T15:43:30.585Z,1.20
2023-03-11T15:46:00.581Z,1.53
2023-03-11T15:48:31.323Z,1.77
2023-03-11T15:51:00.958Z,1.47
2023-03-11T15:53:31.996Z,1.87
2023-03-11T15:56:07.688Z,1.57
2023-03-11T15:58:38.227Z,2.53
2023-03-11T16:01:07.451Z,1.60
2023-03-11T16:03:35.865Z,1.50
2023-03-11T16:06:04.172Z,1.70
2023-03-11T16:08:34.676Z,1.70
2023-03-11T16:11:03.042Z,1.50
2023-03-11T16:13:31.254Z,1.80
2023-03-11T16:15:59.650Z,1.67
2023-03-11T16:18:27.925Z,1.70
2023-03-11T16:20:56.631Z,1.80
2023-03-11T16:23:27.234Z,1.50
2023-03-11T16:25:59.731Z,1.80
2023-03-11T16:28:28.121Z,2.30
2023-03-11T16:30:56.529Z,1.93
2023-03-11T16:33:24.896Z,2.10
2023-03-11T16:35:53.161Z,2.10
2023-03-11T16:38:23.194Z,2.00
2023-03-11T16:40:58.910Z,2.20
2023-03-11T16:43:27.774Z,2.60
2023-03-11T16:45:56.209Z,2.77
2023-03-11T16:48:24.957Z,3.20
2023-03-11T16:50:53.295Z,1.70
2023-03-11T16:53:22.008Z,2.70
2023-03-11T16:55:50.372Z,2.13
2023-03-11T16:58:20.014Z,2.37
2023-03-11T17:00:48.687Z,2.50
2023-03-11T17:03:21.543Z,2.13
2023-03-11T17:05:50.831Z,2.20
2023-03-11T17:08:19.263Z,2.07
2023-03-11T17:10:47.612Z,3.10
2023-03-11T17:13:18.997Z,3.43
2023-03-11T17:15:58.282Z,4.23
2023-03-11T17:18:27.088Z,3.37
2023-03-11T17:20:55.619Z,2.90
2023-03-11T17:23:24.392Z,2.90
2023-03-11T17:25:52.670Z,3.37
2023-03-11T17:28:20.972Z,3.47
2023-03-11T17:30:50.684Z,3.30
2023-03-11T17:33:18.929Z,3.10
2023-03-11T17:35:47.413Z,3.70
2023-03-11T17:38:16.661Z,2.90
2023-03-11T17:40:45.057Z,3.93
2023-03-11T17:43:13.280Z,3.63
2023-03-11T17:45:42.137Z,3.37
2023-03-11T17:48:11.799Z,3.17
2023-03-11T17:50:40.224Z,3.53
2023-03-11T17:53:09.288Z,4.17
2023-03-11T17:55:41.370Z,4.00
2023-03-11T17:58:09.678Z,3.23
2023-03-11T18:00:39.276Z,3.10
2023-03-11T18:03:07.520Z,2.90
2023-03-11T18:05:38.105Z,3.00
2023-03-11T18:08:06.732Z,2.50
2023-03-11T18:10:34.966Z,3.13
2023-03-11T18:13:03.207Z,3.13
2023-03-11T18:15:31.684Z,3.03
2023-03-11T18:18:00.001Z,3.13
2023-03-11T18:20:28.247Z,3.93
2023-03-11T18:22:57.946Z,3.90
2023-03-11T18:25:26.233Z,3.47
2023-03-11T18:27:54.506Z,4.33
2023-03-11T18:30:23.100Z,4.47
2023-03-11T18:32:51.389Z,4.67
2023-03-11T18:35:19.661Z,4.97
2023-03-11T18:37:47.923Z,5.23
2023-03-11T18:40:17.728Z,5.93
2023-03-11T18:42:45.975Z,6.33
2023-03-11T18:45:14.495Z,6.77
2023-03-11T18:47:43.103Z,8.37
2023-03-11T18:50:12.773Z,8.03
2023-03-11T18:52:41.788Z,8.20
2023-03-11T18:55:10.444Z,9.00
2023-03-11T18:57:43.170Z,7.73
2023-03-11T19:00:12.928Z,8.70
2023-03-11T19:02:42.156Z,7.03
2023-03-11T19:05:10.893Z,6.50
2023-03-11T19:07:40.068Z,6.37
2023-03-11T19:10:09.017Z,6.40
2023-03-11T19:12:39.985Z,7.87
2023-03-11T19:15:09.261Z,8.50
2023-03-11T19:17:37.954Z,7.50
2023-03-11T19:20:08.830Z,7.50
2023-03-11T19:22:37.548Z,8.33
2023-03-11T19:25:06.689Z,7.73
2023-03-11T19:27:35.607Z,8.00
2023-03-11T19:30:06.165Z,8.20
2023-03-11T19:32:35.004Z,8.97
2023-03-11T19:35:03.217Z,10.23
2023-03-11T19:37:31.834Z,8.63
2023-03-11T19:40:00.119Z,9.50
2023-03-11T19:42:28.425Z,8.20
2023-03-11T19:44:56.684Z,9.23
2023-03-11T19:47:26.383Z,9.30
2023-03-11T19:49:54.685Z,8.90
2023-03-11T19:52:23.431Z,11.50
2023-03-11T19:54:51.966Z,12.50
2023-03-11T19:57:20.245Z,10.13
2023-03-11T19:59:48.556Z,7.30
2023-03-11T20:02:16.891Z,9.77
2023-03-11T20:04:46.741Z,12.80
2023-03-11T20:07:14.994Z,10.20
2023-03-11T20:09:43.509Z,12.63
2023-03-11T20:12:11.759Z,14.60
2023-03-11T20:14:44.338Z,13.23
2023-03-11T20:17:14.091Z,14.50
2023-03-11T20:19:43.390Z,8.03
2023-03-11T20:22:13.422Z,7.83
2023-03-11T20:24:42.566Z,7.53
2023-03-11T20:27:10.843Z,8.50
2023-03-11T20:29:39.656Z,6.70
2023-03-11T20:32:08.029Z,5.90
2023-03-11T20:34:36.367Z,6.83
2023-03-11T20:37:04.631Z,5.33
2023-03-11T20:39:34.266Z,4.70
2023-03-11T20:42:02.582Z,5.43
2023-03-11T20:44:30.813Z,5.63
2023-03-11T20:46:59.140Z,6.40
2023-03-11T20:49:27.470Z,8.33
2023-03-11T20:51:55.768Z,7.93
2023-03-11T20:54:24.137Z,6.57
2023-03-11T20:56:53.874Z,5.50
2023-03-11T20:59:22.263Z,5.00
2023-03-11T21:01:50.584Z,5.57
2023-03-11T21:04:19.002Z,6.30
2023-03-11T21:06:49.817Z,5.73
2023-03-11T21:09:18.149Z,4.77
2023-03-11T21:11:46.727Z,4.87
2023-03-11T21:14:18.555Z,5.43
2023-03-11T21:16:47.233Z,4.23
2023-03-11T21:19:15.578Z,4.20
2023-03-11T21:21:44.299Z,3.97
2023-03-11T21:24:13.468Z,4.47
2023-03-11T21:26:42.662Z,5.03
2023-03-11T21:29:11.096Z,4.30
2023-03-11T21:31:41.386Z,5.53
2023-03-11T21:34:11.764Z,6.03
2023-03-11T21:36:40.161Z,5.70
2023-03-11T21:39:08.687Z,5.50
2023-03-11T21:41:37.022Z,5.90
2023-03-11T21:44:05.429Z,5.77
2023-03-11T21:46:34.033Z,5.03
2023-03-11T21:49:03.991Z,5.00
2023-03-11T21:51:32.358Z,4.83
2023-03-11T21:54:00.825Z,4.80
2023-03-11T21:56:30.088Z,5.27
2023-03-11T21:58:58.577Z,5.70
2023-03-11T22:01:27.439Z,5.17
2023-03-11T22:03:56.657Z,5.50
2023-03-11T22:06:26.543Z,5.53
2023-03-11T22:08:55.004Z,5.63
2023-03-11T22:11:23.283Z,5.87
2023-03-11T22:13:54.091Z,5.30
2023-03-11T22:16:23.441Z,5.40
2023-03-11T22:18:53.127Z,6.27
2023-03-11T22:21:21.789Z,5.83
2023-03-11T22:23:51.723Z,5.97
2023-03-11T22:26:20.265Z,5.83
2023-03-11T22:28:48.564Z,6.10
2023-03-11T22:31:18.628Z,7.20
2023-03-11T22:33:47.717Z,12.93
2023-03-11T22:36:16.116Z,8.30
2023-03-11T22:38:45.020Z,7.67
2023-03-11T22:41:16.847Z,6.60
2023-03-11T22:43:45.105Z,6.50
2023-03-11T22:46:13.594Z,6.67
2023-03-11T22:48:41.980Z,8.13
2023-03-11T22:51:10.368Z,8.33
2023-03-11T22:53:39.309Z,8.63
2023-03-11T22:56:09.102Z,7.57
2023-03-11T22:58:39.798Z,7.27
2023-03-11T23:01:08.614Z,7.23
2023-03-11T23:03:37.327Z,7.53
2023-03-11T23:06:08.833Z,7.07
2023-03-11T23:08:37.579Z,7.20
2023-03-11T23:11:09.367Z,7.03
2023-03-11T23:13:40.550Z,6.83
2023-03-11T23:16:11.020Z,6.83
2023-03-11T23:18:40.146Z,7.00
2023-03-11T23:21:15.884Z,7.57
2023-03-11T23:23:44.242Z,6.83
2023-03-11T23:26:13.877Z,7.53
2023-03-11T23:28:44.260Z,7.30
2023-03-11T23:31:14.604Z,8.20
2023-03-11T23:33:43.071Z,7.30
2023-03-11T23:36:13.621Z,6.87
2023-03-11T23:38:42.062Z,7.83
2023-03-11T23:41:11.880Z,7.40
2023-03-11T23:43:40.769Z,7.40
2023-03-11T23:46:11.209Z,6.90
2023-03-11T23:48:40.890Z,7.10
2023-03-11T23:51:09.739Z,6.67
2023-03-11T23:53:39.428Z,6.60
2023-03-11T23:56:13.568Z,6.10
2023-03-11T23:58:42.145Z,6.73
